»·PEaware :: N1422E KSNA-KBUR

N1422E :: KSNA-KBUR

FLIGHT INFORMATION

Flight Status: Arrived
Operator: Privately registered:
United States
More flights under this callsign
Pilot: Jonathan B. (787)
Aircraft: BEECH AIRCRAFT BONANZA
(BE36)
More flights by this aircraft type
Origin: KSNA John Wayne-Orange Co
United States
Destination: KBUR Bob Hope-Burbank
United States
More flights between these airports :: More routes between these airports
Route: +SLI V23 POPPR SMO125 SMO SMO311 SILEX
File this flight plan on PilotEdge
Remarks:
Altitude:
(Current/Filed)
6,000ft
Speed:
(Current/Filed)
160kts
Departed: 12-Jun-15 10:38 AM
Arrived: 12-Jun-15 11:07 AM
Distance/Time
Traveled:
40nm/0:29
Distance/Time
To Go:
Arrived

Flight Plot

Page will automatically refresh every two minutes.


Map Options




Map Legend


Flown Route
Filed Route
Departure Airport
Arrival Airport
Navaid (VOR, NDB)
Fix

Horizontal Profiles

Position Reports

Time Latitude Longitude Heading Altitude Ground
Speed
12-Jun-15 10:12 33.676222 -117.871048 219 59ft 0kts
12-Jun-15 10:13 33.676222 -117.871048 219 59ft 0kts
12-Jun-15 10:14 33.676222 -117.871048 219 59ft 0kts
12-Jun-15 10:15 33.676222 -117.871048 219 59ft 0kts
12-Jun-15 10:16 33.676222 -117.871048 219 59ft 0kts
12-Jun-15 10:17 33.676222 -117.871048 219 59ft 0kts
12-Jun-15 10:18 33.676222 -117.871048 219 59ft 0kts
12-Jun-15 10:19 33.676222 -117.871048 219 59ft 0kts
12-Jun-15 10:20 33.676222 -117.871048 219 59ft 0kts
12-Jun-15 10:21 33.676222 -117.871048 219 59ft 0kts
12-Jun-15 10:22 33.676222 -117.871048 219 59ft 0kts
12-Jun-15 10:23 33.676222 -117.871048 219 59ft 0kts
12-Jun-15 10:24 33.676222 -117.871048 219 59ft 0kts
12-Jun-15 10:25 33.676222 -117.871048 219 59ft 0kts
12-Jun-15 10:26 33.676222 -117.871048 219 59ft 0kts
12-Jun-15 10:27 33.676222 -117.871048 219 59ft 0kts
12-Jun-15 10:28 33.676080 -117.870112 34 60ft 14kts
12-Jun-15 10:29 33.680792 -117.867338 27 60ft 17kts
12-Jun-15 10:30 33.681274 -117.866555 108 59ft 0kts
12-Jun-15 10:31 33.681274 -117.866555 108 59ft 0kts
12-Jun-15 10:32 33.680864 -117.865757 155 59ft 19kts
12-Jun-15 10:33 33.664768 -117.880960 234 562ft 116kts
12-Jun-15 10:34 33.644025 -117.915517 235 1668ft 132kts
12-Jun-15 10:35 33.621716 -117.952593 235 2727ft 140kts
12-Jun-15 10:36 33.598900 -117.990314 235 3765ft 140kts
12-Jun-15 10:37 33.574587 -118.030516 235 3992ft 170kts
12-Jun-15 10:38 33.567197 -118.078666 335 3988ft 177kts
12-Jun-15 10:39 33.614773 -118.095030 345 3990ft 178kts
12-Jun-15 10:40 33.661818 -118.112246 322 3973ft 179kts
12-Jun-15 10:41 33.699575 -118.150085 326 3992ft 178kts
12-Jun-15 10:42 33.739736 -118.185219 322 3993ft 178kts
12-Jun-15 10:43 33.776908 -118.221069 321 3988ft 179kts
12-Jun-15 10:44 33.814320 -118.257899 320 3983ft 176kts
12-Jun-15 10:45 33.851442 -118.294960 319 3982ft 175kts
12-Jun-15 10:46 33.888009 -118.331832 318 3982ft 177kts
12-Jun-15 10:47 33.923479 -118.367607 318 3979ft 178kts
12-Jun-15 10:48 33.960700 -118.405064 318 3979ft 179kts
12-Jun-15 10:49 33.998813 -118.444097 318 3979ft 180kts
12-Jun-15 10:50 34.037365 -118.478611 315 3978ft 179kts
12-Jun-15 10:51 34.073168 -118.520587 307 3951ft 177kts
12-Jun-15 10:52 34.102075 -118.568254 304 3989ft 177kts
12-Jun-15 10:53 34.130788 -118.616618 304 3974ft 176kts
12-Jun-15 10:54 34.159851 -118.664098 315 3863ft 180kts
12-Jun-15 10:55 34.200947 -118.652256 80 3507ft 175kts
12-Jun-15 10:56 34.199118 -118.597199 94 2938ft 136kts
12-Jun-15 10:57 34.196461 -118.553091 90 2902ft 155kts
12-Jun-15 10:58 34.195882 -118.504651 78 2925ft 131kts
12-Jun-15 10:59 34.199315 -118.462637 95 2593ft 119kts
12-Jun-15 11:00 34.198363 -118.420028 92 1749ft 132kts
12-Jun-15 11:01 34.198198 -118.381892 91 1098ft 97kts
12-Jun-15 11:02 34.197267 -118.360262 170 780ft 0kts
12-Jun-15 11:03 34.196832 -118.360646 258 781ft 16kts
12-Jun-15 11:04 34.196620 -118.363231 272 781ft 0kts
12-Jun-15 11:05 34.196620 -118.363242 270 781ft 1kts
12-Jun-15 11:06 34.196539 -118.363619 240 780ft 0kts
12-Jun-15 11:07 34.196539 -118.363619 240 780ft 0kts

Navigation Log

Ident Type
Flight plan parsing failed, navigation log unavailable